Time;durP1;ratioP1;P1;durP2;ratioP2;P2;SDS_P1;SDS_P2;PMS_P1;PMS_P2;Temp;Humidity;BMP_temperature;BMP_pressure;BME280_temperature;BME280_humidity;BME280_pressure;Samples;Min_cycle;Max_cycle;Signal;HPM_P1;HPM_P2
2022/03/27 00:01:07;;;;;;;15.20;11.77;;;;;;;10.61;41.85;100323.94;5073393;28;20214;-57
2022/03/27 00:03:35;;;;;;;20.37;13.40;;;;;;;10.85;41.62;100358.91;5073270;28;20192;-58
2022/03/27 00:06:02;;;;;;;18.17;12.63;;;;;;;10.94;41.23;100359.13;5073183;28;20266;-57
2022/03/27 00:08:29;;;;;;;16.00;11.77;;;;;;;10.94;40.87;100352.28;5073037;28;20566;-57
2022/03/27 00:13:40;;;;;;;21.10;14.30;;;;;;;11.10;41.01;100344.19;5072414;28;20421;-57
2022/03/27 00:16:09;;;;;;;18.23;12.03;;;;;;;11.16;40.44;100346.06;5072826;28;20672;-57
2022/03/27 00:18:37;;;;;;;15.90;11.53;;;;;;;11.19;40.34;100343.56;5072893;28;20612;-57
2022/03/27 00:21:04;;;;;;;12.83;10.90;;;;;;;11.24;40.35;100344.56;5072750;28;20187;-57
2022/03/27 00:23:31;;;;;;;18.47;11.00;;;;;;;11.26;39.97;100348.91;5073159;28;20214;-57
2022/03/27 00:25:58;;;;;;;18.80;11.23;;;;;;;11.23;39.86;100346.25;5073110;28;20191;-58
2022/03/27 00:28:31;;;;;;;15.27;10.50;;;;;;;11.40;39.17;100340.72;5072883;28;20187;-57
2022/03/27 00:30:59;;;;;;;14.70;10.13;;;;;;;11.36;38.96;100347.47;5072246;28;20295;-58
2022/03/27 00:33:26;;;;;;;14.20;9.37;;;;;;;11.44;38.92;100347.66;5072517;28;20188;-57
2022/03/27 00:35:55;;;;;;;17.60;8.93;;;;;;;11.49;38.55;100344.38;5072793;28;20195;-57
2022/03/27 00:38:23;;;;;;;14.23;8.60;;;;;;;11.59;38.21;100340.34;5074374;28;20194;-58
2022/03/27 00:40:51;;;;;;;11.10;8.13;;;;;;;11.60;38.04;100345.53;5073911;28;20188;-57
2022/03/27 00:43:18;;;;;;;14.47;9.13;;;;;;;11.59;38.04;100343.78;5072968;28;20198;-57
2022/03/27 00:45:45;;;;;;;13.40;9.43;;;;;;;11.66;38.02;100344.81;5072260;28;20183;-57
2022/03/27 00:48:12;;;;;;;11.63;9.07;;;;;;;11.59;38.63;100350.66;5079971;28;20192;-59
2022/03/27 00:50:39;;;;;;;14.67;9.33;;;;;;;11.62;38.82;100343.00;5082506;28;20191;-60
2022/03/27 00:53:08;;;;;;;14.27;9.67;;;;;;;11.59;39.11;100346.34;5074611;28;20214;-58
2022/03/27 00:55:35;;;;;;;11.60;8.70;;;;;;;11.51;39.08;100345.28;5069008;28;20187;-58
2022/03/27 00:58:02;;;;;;;14.85;10.50;;;;;;;11.52;39.22;100348.72;5073521;28;20445;-58
2022/03/27 01:00:57;;;;;;;12.70;9.67;;;;;;;11.51;39.11;100347.00;5081175;28;20361;-58
2022/03/27 01:03:26;;;;;;;14.52;11.05;;;;;;;11.51;39.64;100342.72;5065411;28;20448;-58
2022/03/27 01:05:54;;;;;;;15.73;10.90;;;;;;;11.46;39.51;100352.00;5082329;28;20194;-58
2022/03/27 01:11:13;;;;;;;15.57;9.90;;;;;;;11.08;40.28;100307.28;5079975;28;20203;-58
2022/03/27 01:13:45;;;;;;;12.40;8.93;;;;;;;11.15;40.53;100342.59;5080308;28;20573;-59
2022/03/27 01:16:17;;;;;;;17.53;10.57;;;;;;;11.06;41.13;100342.38;5080906;28;20183;-59
2022/03/27 01:18:44;;;;;;;18.17;10.67;;;;;;;10.99;41.34;100340.44;5078689;28;20681;-57
2022/03/27 01:21:14;;;;;;;13.20;10.33;;;;;;;10.96;41.54;100342.06;5080980;28;20562;-59
2022/03/27 01:23:41;;;;;;;12.70;10.00;;;;;;;10.93;40.96;100336.84;5078222;28;20175;-59
2022/03/27 01:26:08;;;;;;;17.50;10.43;;;;;;;11.01;40.56;100338.81;5081558;28;20187;-60
2022/03/27 01:28:35;;;;;;;15.97;8.83;;;;;;;10.99;40.74;100332.72;5082180;28;20570;-60
2022/03/27 01:31:02;;;;;;;14.47;9.90;;;;;;;11.02;40.65;100337.94;5078037;28;20199;-60
2022/03/27 01:33:29;;;;;;;14.40;9.70;;;;;;;11.07;40.47;100328.66;5081011;28;20178;-59
2022/03/27 01:35:57;;;;;;;14.67;9.93;;;;;;;11.10;40.37;100328.75;5081828;28;20194;-61
2022/03/27 01:38:25;;;;;;;15.43;9.67;;;;;;;11.04;40.78;100327.72;5073827;28;20274;-57
2022/03/27 01:40:53;;;;;;;14.43;9.98;;;;;;;11.11;40.03;100316.75;5069495;28;20486;-57
2022/03/27 01:43:20;;;;;;;15.67;8.50;;;;;;;11.23;39.04;100319.69;5068310;28;20286;-58
2022/03/27 01:45:47;;;;;;;13.57;9.53;;;;;;;11.21;39.16;100316.16;5070810;28;20187;-58
2022/03/27 01:48:14;;;;;;;11.73;8.43;;;;;;;11.26;38.84;100317.19;5070816;28;20228;-57
2022/03/27 01:50:40;;;;;;;14.77;9.60;;;;;;;11.40;38.53;100320.97;5070854;28;20188;-57
2022/03/27 01:53:07;;;;;;;10.90;9.43;;;;;;;11.43;38.64;100323.63;5070561;28;20661;-57
2022/03/27 01:55:36;;;;;;;16.40;9.43;;;;;;;11.44;38.61;100319.34;5066481;28;20564;-56
2022/03/27 01:58:03;;;;;;;10.50;7.70;;;;;;;11.47;38.36;100324.59;5051132;28;20192;-56
2022/03/27 02:00:30;;;;;;;15.20;8.07;;;;;;;11.48;38.34;100319.47;5057160;28;20620;-57
2022/03/27 02:02:56;;;;;;;13.33;8.67;;;;;;;11.51;38.55;100319.53;5071047;28;20188;-58
2022/03/27 02:05:23;;;;;;;10.53;8.20;;;;;;;11.58;38.17;100313.75;5070939;28;20206;-58
2022/03/27 02:07:50;;;;;;;13.33;9.30;;;;;;;11.59;38.35;100312.88;5070810;28;20196;-58
2022/03/27 02:10:18;;;;;;;13.47;8.33;;;;;;;11.55;38.52;100312.78;5070911;28;20298;-58
2022/03/27 02:12:46;;;;;;;12.03;7.80;;;;;;;11.55;38.09;100315.34;5070662;28;20269;-60
2022/03/27 02:15:13;;;;;;;10.97;8.57;;;;;;;11.53;38.47;100317.91;5070773;28;20200;-60
2022/03/27 02:17:40;;;;;;;11.17;9.03;;;;;;;11.48;38.77;100311.75;5069573;28;20337;-61
2022/03/27 02:20:09;;;;;;;19.53;9.27;;;;;;;11.50;38.71;100309.22;5070589;28;20206;-60
2022/03/27 02:22:35;;;;;;;12.37;8.60;;;;;;;11.61;38.10;100315.50;5070594;28;20278;-59
2022/03/27 02:25:02;;;;;;;10.87;7.33;;;;;;;11.63;37.74;100307.00;5070955;28;20192;-59
2022/03/27 02:27:29;;;;;;;14.67;8.20;;;;;;;11.58;38.23;100313.75;5070716;28;20230;-59
2022/03/27 02:29:58;;;;;;;10.83;7.60;;;;;;;11.60;38.18;100306.03;5070517;28;20203;-59
2022/03/27 02:32:24;;;;;;;13.93;8.13;;;;;;;11.53;38.72;100312.75;5070479;28;20251;-59
2022/03/27 02:34:51;;;;;;;10.17;7.60;;;;;;;11.60;38.09;100309.50;5070368;28;20199;-60
2022/03/27 02:37:18;;;;;;;13.13;8.98;;;;;;;11.58;38.42;100321.47;5069627;28;20445;-60
2022/03/27 02:39:45;;;;;;;15.53;9.30;;;;;;;11.62;38.41;100317.28;5070325;28;20187;-59
2022/03/27 02:42:13;;;;;;;18.40;9.70;;;;;;;11.57;38.58;100314.56;5070392;28;20183;-60
2022/03/27 02:44:39;;;;;;;14.93;9.10;;;;;;;11.51;38.96;100316.13;5070281;28;20700;-59
2022/03/27 02:47:11;;;;;;;12.67;8.23;;;;;;;11.43;39.13;100322.75;5070586;28;20282;-59
2022/03/27 02:49:37;;;;;;;12.23;8.30;;;;;;;11.35;39.14;100324.25;5070883;28;20195;-59
2022/03/27 02:52:05;;;;;;;16.27;8.47;;;;;;;11.30;38.83;100328.41;5070677;28;20268;-58
2022/03/27 02:54:32;;;;;;;17.90;8.37;;;;;;;11.29;39.01;100331.84;5070584;28;20196;-59
2022/03/27 02:56:59;;;;;;;15.00;8.37;;;;;;;11.46;38.31;100334.00;5070332;28;20215;-60
2022/03/27 02:59:27;;;;;;;12.20;7.70;;;;;;;11.51;38.01;100336.72;5070236;28;20239;-60
2022/03/27 03:01:54;;;;;;;14.70;8.00;;;;;;;11.53;37.76;100346.22;5070056;28;20192;-60
2022/03/27 03:04:22;;;;;;;18.77;7.90;;;;;;;11.67;37.49;100346.56;5070120;28;20682;-60
2022/03/27 03:06:49;;;;;;;11.77;7.17;;;;;;;11.64;37.11;100347.38;5069983;28;20195;-61
2022/03/27 03:09:17;;;;;;;17.37;7.83;;;;;;;11.67;37.31;100351.72;5069912;28;20187;-60
2022/03/27 03:11:44;;;;;;;16.10;8.87;;;;;;;11.70;37.30;100347.53;5069861;28;20215;-59
2022/03/27 03:14:12;;;;;;;15.30;7.33;;;;;;;11.66;36.93;100335.41;5070343;28;20264;-59
2022/03/27 03:16:40;;;;;;;11.10;7.83;;;;;;;11.65;37.36;100346.50;5069883;28;20191;-58
2022/03/27 03:19:07;;;;;;;11.00;7.40;;;;;;;11.69;37.11;100343.22;5069923;28;20191;-59
2022/03/27 03:21:36;;;;;;;14.52;8.98;;;;;;;11.77;37.16;100351.13;5066947;28;20442;-59
2022/03/27 03:24:03;;;;;;;12.57;7.83;;;;;;;11.70;37.29;100352.66;5065530;28;20195;-59
2022/03/27 03:26:30;;;;;;;11.90;9.17;;;;;;;11.58;38.13;100354.91;5069794;28;20191;-59
2022/03/27 03:28:58;;;;;;;13.57;8.90;;;;;;;11.47;38.54;100350.31;5069770;28;20196;-59
2022/03/27 03:31:25;;;;;;;14.23;9.40;;;;;;;11.40;38.89;100361.28;5069658;28;20706;-59
2022/03/27 03:33:51;;;;;;;14.07;10.10;;;;;;;11.27;39.35;100355.81;5062887;28;20462;-59
2022/03/27 03:36:18;;;;;;;15.10;8.97;;;;;;;11.19;39.66;100364.13;5049950;28;20188;-60
2022/03/27 03:38:47;;;;;;;12.03;8.07;;;;;;;11.13;39.64;100363.97;5049988;28;20268;-59
2022/03/27 03:41:13;;;;;;;9.03;7.30;;;;;;;11.07;39.15;100364.66;5049466;28;20594;-59
2022/03/27 03:43:43;;;;;;;22.20;8.27;;;;;;;11.04;39.29;100367.16;5049782;28;20199;-59
2022/03/27 03:46:10;;;;;;;12.90;8.10;;;;;;;11.04;39.42;100362.00;5049721;28;20574;-59
2022/03/27 03:48:37;;;;;;;14.57;9.07;;;;;;;11.09;39.16;100364.72;5049637;28;20232;-60
2022/03/27 03:51:03;;;;;;;14.77;8.13;;;;;;;11.08;39.11;100363.84;5049552;28;20223;-61
2022/03/27 03:53:30;;;;;;;13.37;8.03;;;;;;;11.07;39.06;100366.38;5049929;28;20204;-60
2022/03/27 03:55:59;;;;;;;14.60;8.00;;;;;;;11.04;39.35;100374.88;5049588;28;20206;-59
2022/03/27 03:58:25;;;;;;;11.00;7.77;;;;;;;10.99;39.90;100371.28;5049506;28;20198;-60
2022/03/27 04:00:52;;;;;;;15.33;9.33;;;;;;;10.87;40.50;100376.09;5049579;28;20238;-62
2022/03/27 04:03:19;;;;;;;14.77;8.03;;;;;;;10.85;40.33;100374.31;5049447;28;20593;-60
2022/03/27 04:05:47;;;;;;;13.75;9.27;;;;;;;10.68;40.91;100377.22;5051366;28;20522;-61
2022/03/27 04:08:14;;;;;;;10.80;8.17;;;;;;;10.65;41.17;100371.16;5053054;28;20287;-61
2022/03/27 04:10:41;;;;;;;13.57;9.33;;;;;;;10.65;40.72;100376.28;5053431;28;20180;-60
2022/03/27 04:13:10;;;;;;;11.77;8.93;;;;;;;10.70;40.11;100379.88;5053052;28;20354;-60
2022/03/27 04:15:38;;;;;;;13.90;8.30;;;;;;;10.69;40.22;100375.53;5052933;28;20192;-60
2022/03/27 04:18:06;;;;;;;12.53;8.37;;;;;;;10.71;39.94;100376.47;5052937;28;20671;-60
2022/03/27 04:20:34;;;;;;;14.07;8.27;;;;;;;10.85;39.19;100380.31;5053000;28;20196;-61
2022/03/27 04:23:02;;;;;;;8.97;7.80;;;;;;;10.97;38.65;100383.25;5053005;28;20279;-61
2022/03/27 04:25:29;;;;;;;13.43;8.13;;;;;;;11.06;38.52;100382.63;5053025;28;20196;-60
2022/03/27 04:27:56;;;;;;;12.17;7.93;;;;;;;11.31;38.01;100386.75;5052868;28;20279;-60
2022/03/27 04:30:25;;;;;;;11.67;7.40;;;;;;;11.41;37.81;100393.91;5052658;28;20687;-60
2022/03/27 04:32:52;;;;;;;12.57;7.47;;;;;;;11.45;37.87;100395.75;5052724;28;20224;-60
2022/03/27 04:35:19;;;;;;;13.90;7.83;;;;;;;11.52;37.92;100395.94;5053283;28;20326;-59
2022/03/27 04:37:47;;;;;;;10.17;7.10;;;;;;;11.69;37.29;100396.41;5053109;28;20188;-59
2022/03/27 04:40:15;;;;;;;12.63;8.33;;;;;;;11.69;37.27;100391.25;5052897;28;20246;-59
2022/03/27 04:42:42;;;;;;;14.30;7.97;;;;;;;11.69;37.48;100396.41;5052770;28;20192;-59
2022/03/27 04:45:10;;;;;;;14.20;7.97;;;;;;;11.77;37.61;100393.22;5052751;28;20208;-60
2022/03/27 04:47:39;;;;;;;11.07;8.90;;;;;;;11.82;37.42;100398.47;5052205;28;20659;-60
2022/03/27 04:50:08;;;;;;;13.43;8.30;;;;;;;11.82;37.90;100406.19;5052442;28;20196;-59
2022/03/27 04:52:35;;;;;;;18.20;8.40;;;;;;;11.88;37.47;100403.78;5052176;28;20311;-58
2022/03/27 04:55:02;;;;;;;13.17;9.10;;;;;;;11.76;37.96;100390.56;5052643;28;20222;-58
2022/03/27 04:57:33;;;;;;;10.33;7.53;;;;;;;11.89;37.76;100412.38;5054510;28;20199;-57
2022/03/27 05:00:00;;;;;;;10.13;7.83;;;;;;;11.91;37.96;100419.31;5071516;28;20224;-57
2022/03/27 05:02:28;;;;;;;11.73;7.97;;;;;;;11.96;37.38;100422.00;5072650;28;20192;-57
2022/03/27 05:04:56;;;;;;;12.10;8.60;;;;;;;12.03;37.24;100416.19;5070863;28;20731;-57
2022/03/27 05:07:23;;;;;;;12.90;7.60;;;;;;;12.05;37.07;100420.53;5081070;28;20192;-57
2022/03/27 05:09:50;;;;;;;10.20;7.87;;;;;;;12.06;37.09;100418.84;5079067;28;20203;-57
2022/03/27 05:12:17;;;;;;;13.73;7.93;;;;;;;12.14;36.87;100423.31;5071976;28;20227;-57
2022/03/27 05:14:44;;;;;;;11.33;8.33;;;;;;;12.21;37.25;100416.63;5071691;28;20566;-57
2022/03/27 05:17:11;;;;;;;12.57;7.90;;;;;;;12.24;36.99;100417.56;5069770;28;20198;-58
2022/03/27 05:19:38;;;;;;;13.53;8.53;;;;;;;12.25;36.74;100415.88;5071802;28;20554;-58
2022/03/27 05:22:07;;;;;;;11.43;8.00;;;;;;;12.17;37.01;100401.91;5071039;28;20195;-58
2022/03/27 05:24:34;;;;;;;12.57;8.80;;;;;;;12.38;36.74;100425.63;5070977;28;20195;-58
2022/03/27 05:27:01;;;;;;;13.77;8.70;;;;;;;12.52;36.29;100415.66;5071824;28;20570;-58
2022/03/27 05:29:27;;;;;;;12.57;8.67;;;;;;;12.60;36.47;100424.44;5071582;28;20298;-58
2022/03/27 05:31:55;;;;;;;12.00;9.10;;;;;;;12.61;36.83;100427.03;5071595;28;20202;-57
2022/03/27 05:34:22;;;;;;;13.70;8.80;;;;;;;12.60;37.05;100420.16;5071417;28;20199;-57
2022/03/27 05:36:49;;;;;;;14.25;10.23;;;;;;;12.65;37.45;100423.69;5080219;28;20497;-57
2022/03/27 05:39:18;;;;;;;16.53;8.70;;;;;;;12.73;36.54;100419.56;5091542;28;20572;-58
2022/03/27 05:41:45;;;;;;;12.03;7.60;;;;;;;12.81;36.47;100425.78;5091540;28;20191;-58
2022/03/27 05:44:11;;;;;;;13.03;8.17;;;;;;;12.83;35.72;100425.78;5091739;28;20194;-57
2022/03/27 05:46:39;;;;;;;13.73;8.43;;;;;;;12.90;35.71;100427.69;5091326;28;20293;-57
2022/03/27 05:49:06;;;;;;;13.20;8.00;;;;;;;13.03;35.57;100435.72;5091593;28;20214;-57
2022/03/27 05:51:33;;;;;;;11.23;8.20;;;;;;;13.10;35.23;100429.03;5091185;28;20209;-58
2022/03/27 05:54:00;;;;;;;11.93;7.37;;;;;;;13.26;34.95;100440.53;5091258;28;20802;-58
2022/03/27 05:56:29;;;;;;;12.77;7.50;;;;;;;13.34;34.32;100432.09;5091122;28;20191;-59
2022/03/27 05:58:56;;;;;;;11.83;8.10;;;;;;;13.49;34.34;100442.72;5090763;28;20210;-58
2022/03/27 06:01:23;;;;;;;16.00;7.40;;;;;;;13.60;33.95;100438.63;5091041;28;20185;-58
2022/03/27 06:03:50;;;;;;;9.67;8.20;;;;;;;13.68;34.09;100445.66;5090874;28;20183;-57
2022/03/27 06:06:17;;;;;;;9.53;7.07;;;;;;;13.68;33.93;100443.09;5090928;28;20197;-57
2022/03/27 06:08:44;;;;;;;11.43;6.97;;;;;;;13.79;33.80;100444.16;5090849;28;20251;-57
2022/03/27 06:11:11;;;;;;;11.20;8.20;;;;;;;13.86;33.71;100438.25;5058425;28;20637;-57
2022/03/27 06:13:40;;;;;;;11.33;8.37;;;;;;;13.94;33.68;100447.00;5050764;28;20311;-59
2022/03/27 06:16:07;;;;;;;11.10;8.50;;;;;;;14.02;34.04;100437.66;5051130;28;20199;-59
2022/03/27 06:18:33;;;;;;;12.38;9.27;;;;;;;14.07;34.15;100438.63;5050198;28;20439;-59
2022/03/27 06:21:00;;;;;;;12.37;8.73;;;;;;;14.19;34.03;100444.00;5050894;28;20200;-58
2022/03/27 06:23:27;;;;;;;11.67;8.40;;;;;;;14.25;33.82;100451.00;5050208;28;20205;-58
2022/03/27 06:25:54;;;;;;;10.77;8.53;;;;;;;14.29;34.00;100447.59;5050816;28;20275;-58
2022/03/27 06:28:21;;;;;;;11.17;8.63;;;;;;;14.30;33.98;100441.59;5050017;28;20199;-58
2022/03/27 06:30:50;;;;;;;13.70;8.17;;;;;;;14.43;33.32;100452.19;5050294;28;20199;-58
2022/03/27 06:33:17;;;;;;;9.23;8.23;;;;;;;14.48;33.89;100450.53;5050415;28;20704;-58
2022/03/27 06:35:44;;;;;;;12.70;9.27;;;;;;;14.51;33.94;100455.78;5050770;28;20187;-58
2022/03/27 06:38:11;;;;;;;14.67;8.03;;;;;;;14.53;33.92;100455.81;5061747;28;20207;-58
2022/03/27 06:40:37;;;;;;;14.00;8.07;;;;;;;14.64;33.77;100452.50;5070264;28;20192;-59
2022/03/27 06:43:05;;;;;;;13.87;8.40;;;;;;;14.59;33.98;100454.16;5066326;28;21030;-58
2022/03/27 06:45:32;;;;;;;10.20;8.47;;;;;;;14.76;34.07;100462.19;5063953;28;20268;-58
2022/03/27 06:48:01;;;;;;;13.32;9.38;;;;;;;14.80;33.64;100465.69;5063174;28;20453;-58
2022/03/27 06:50:28;;;;;;;12.20;8.37;;;;;;;14.94;33.69;100461.59;5072335;28;20197;-58
2022/03/27 06:52:56;;;;;;;12.20;7.57;;;;;;;14.99;33.74;100460.81;5069106;28;20208;-58
2022/03/27 06:55:23;;;;;;;13.43;8.43;;;;;;;15.00;33.53;100453.88;5072415;28;20186;-57
2022/03/27 06:57:50;;;;;;;14.20;8.20;;;;;;;15.09;33.71;100469.56;5069751;28;20187;-58
2022/03/27 07:03:06;;;;;;;10.43;8.10;;;;;;;15.04;33.44;100435.84;5064692;28;20196;-58
2022/03/27 07:05:35;;;;;;;9.67;8.03;;;;;;;15.26;33.52;100466.34;5061550;28;20208;-56
2022/03/27 07:08:03;;;;;;;12.80;7.93;;;;;;;15.35;33.02;100463.00;5058605;28;20230;-59
2022/03/27 07:10:30;;;;;;;14.53;8.87;;;;;;;15.46;33.01;100463.13;5060788;28;20232;-59
2022/03/27 07:12:57;;;;;;;17.57;8.00;;;;;;;15.52;32.96;100461.50;5061310;28;20677;-58
2022/03/27 07:15:25;;;;;;;12.97;7.43;;;;;;;15.64;32.62;100458.19;5066160;28;20210;-58
2022/03/27 07:17:53;;;;;;;11.63;8.00;;;;;;;15.70;32.95;100463.44;5070219;28;20274;-58
2022/03/27 07:20:26;;;;;;;14.20;8.37;;;;;;;15.76;32.91;100466.13;5069360;28;20191;-57
2022/03/27 07:22:54;;;;;;;12.00;8.40;;;;;;;15.88;32.44;100468.81;5070905;28;20218;-60
2022/03/27 07:25:22;;;;;;;14.00;8.03;;;;;;;15.93;32.40;100465.41;5067011;28;20342;-58
2022/03/27 07:27:49;;;;;;;10.37;8.23;;;;;;;15.97;32.29;100473.22;5067107;28;20215;-58
2022/03/27 07:30:17;;;;;;;13.53;8.13;;;;;;;16.08;32.12;100458.66;5067671;28;20188;-58
2022/03/27 07:32:44;;;;;;;11.93;8.07;;;;;;;16.18;31.92;100460.50;5060411;28;20200;-60
2022/03/27 07:35:14;;;;;;;12.60;8.77;;;;;;;16.36;31.65;100458.03;5049776;28;20601;-58
2022/03/27 07:37:43;;;;;;;13.63;7.77;;;;;;;16.48;31.10;100463.34;5060192;28;20208;-58
2022/03/27 07:40:12;;;;;;;13.07;8.17;;;;;;;16.65;30.27;100455.69;5068392;28;20686;-58
2022/03/27 07:42:40;;;;;;;12.32;8.50;;;;;;;16.74;29.66;100453.16;5052636;28;20446;-60
2022/03/27 07:45:09;;;;;;;11.67;8.00;;;;;;;16.88;30.00;100451.53;5071308;28;20195;-58
2022/03/27 07:47:37;;;;;;;10.57;7.60;;;;;;;16.96;29.93;100457.63;5073007;28;20191;-57
2022/03/27 07:50:06;;;;;;;11.30;8.37;;;;;;;17.03;29.42;100446.44;5072012;28;20273;-57
2022/03/27 07:52:33;;;;;;;10.37;8.20;;;;;;;17.13;29.10;100444.75;5071467;28;20271;-57
2022/03/27 07:55:04;;;;;;;20.90;8.37;;;;;;;17.14;29.39;100452.53;5071615;28;20217;-58
2022/03/27 07:57:31;;;;;;;14.63;8.50;;;;;;;17.14;29.42;100446.50;5071107;28;20351;-58
2022/03/27 07:59:58;;;;;;;12.17;8.27;;;;;;;17.34;28.78;100439.63;5071420;28;20787;-57
2022/03/27 08:02:24;;;;;;;12.23;8.30;;;;;;;17.40;28.43;100439.66;5071929;28;20202;-57
2022/03/27 08:04:51;;;;;;;15.97;8.07;;;;;;;17.49;27.83;100450.09;5071788;28;20206;-58
2022/03/27 08:07:18;;;;;;;13.10;8.03;;;;;;;17.58;27.73;100445.81;5062829;28;20207;-57
2022/03/27 08:09:46;;;;;;;10.50;8.57;;;;;;;17.65;27.51;100446.72;5070455;28;20203;-58
2022/03/27 08:12:17;;;;;;;10.43;7.80;;;;;;;17.67;27.17;100434.59;5072575;28;20199;-59
2022/03/27 08:14:46;;;;;;;11.37;8.10;;;;;;;17.70;26.45;100434.59;5068404;28;20661;-58
2022/03/27 08:17:12;;;;;;;11.13;8.23;;;;;;;17.75;26.03;100438.06;5067236;28;20248;-58
2022/03/27 08:19:40;;;;;;;10.60;8.27;;;;;;;17.77;26.33;100420.78;5079185;28;20195;-58
2022/03/27 08:22:07;;;;;;;12.77;7.70;;;;;;;17.78;26.56;100426.81;5073304;28;20199;-59
2022/03/27 08:24:34;;;;;;;15.57;8.90;;;;;;;17.96;26.26;100425.13;5073860;28;20182;-58
2022/03/27 08:27:02;;;;;;;10.95;8.77;;;;;;;18.05;25.92;100430.31;5082543;28;21270;-59
2022/03/27 08:29:31;;;;;;;13.90;8.53;;;;;;;18.14;25.74;100425.13;5076153;28;20186;-58
2022/03/27 08:32:01;;;;;;;10.23;8.43;;;;;;;18.24;25.25;100416.47;5081490;28;20180;-58
2022/03/27 08:34:31;;;;;;;13.00;8.40;;;;;;;18.26;25.25;100416.47;5057686;28;20223;-58
2022/03/27 08:36:59;;;;;;;14.13;8.47;;;;;;;18.24;25.29;100413.84;5072526;28;20286;-58
2022/03/27 08:39:27;;;;;;;12.60;9.00;;;;;;;18.29;25.12;100412.13;5072643;28;20214;-58
2022/03/27 08:41:55;;;;;;;14.00;8.77;;;;;;;18.34;25.04;100419.06;5072360;28;20192;-58
2022/03/27 08:44:23;;;;;;;16.63;9.77;;;;;;;18.42;24.50;100401.72;5072230;28;20191;-58
2022/03/27 08:46:53;;;;;;;11.90;8.57;;;;;;;18.43;24.53;100398.25;5072207;28;20199;-57
2022/03/27 08:49:34;;;;;;;13.47;8.93;;;;;;;18.46;24.45;100386.06;5070729;28;20195;-58
2022/03/27 08:52:08;;;;;;;15.60;9.70;;;;;;;18.60;24.48;100394.78;5070126;28;20582;-58
2022/03/27 08:54:48;;;;;;;14.87;9.27;;;;;;;18.70;24.22;100393.03;5080838;28;20612;-57
2022/03/27 08:57:24;;;;;;;15.90;9.70;;;;;;;18.74;23.87;100381.72;5079153;28;20229;-58
2022/03/27 08:59:53;;;;;;;17.43;10.40;;;;;;;18.75;23.93;100376.53;5076550;28;20471;-58
2022/03/27 09:02:24;;;;;;;11.07;9.20;;;;;;;18.83;23.87;100373.91;5081112;28;20179;-58
2022/03/27 09:04:53;;;;;;;10.27;8.97;;;;;;;18.88;23.99;100382.56;5073732;28;20659;-58
2022/03/27 09:07:20;;;;;;;12.93;8.97;;;;;;;18.91;24.00;100382.53;5075588;28;20192;-58
2022/03/27 09:09:47;;;;;;;16.27;9.30;;;;;;;18.91;23.66;100360.84;5072344;28;20442;-58
2022/03/27 09:12:16;;;;;;;9.97;8.97;;;;;;;19.01;23.51;100368.59;5071222;28;20198;-58
2022/03/27 09:14:44;;;;;;;12.90;8.10;;;;;;;19.15;22.92;100364.22;5071631;28;20219;-58
2022/03/27 09:17:10;;;;;;;14.43;9.27;;;;;;;19.23;22.75;100357.22;5071650;28;20265;-59
2022/03/27 09:19:41;;;;;;;16.00;9.67;;;;;;;19.38;22.34;100359.78;5071701;28;20188;-57
2022/03/27 09:22:16;;;;;;;10.80;8.57;;;;;;;19.43;21.70;100362.34;5071350;28;20191;-57
2022/03/27 09:24:46;;;;;;;13.97;9.37;;;;;;;19.30;21.03;100343.31;5071123;28;20262;-57
2022/03/27 09:27:13;;;;;;;12.17;9.37;;;;;;;19.49;21.54;100359.72;5071721;28;20231;-57
2022/03/27 09:30:02;;;;;;;14.40;9.80;;;;;;;19.51;21.03;100357.09;5071749;28;20198;-57
2022/03/27 09:32:30;;;;;;;14.30;8.93;;;;;;;19.53;21.56;100358.81;5073061;28;21856;-57
2022/03/27 09:35:04;;;;;;;12.10;8.87;;;;;;;19.63;21.40;100355.28;5069553;28;20223;-57
2022/03/27 09:37:33;;;;;;;15.60;9.47;;;;;;;19.67;19.98;100364.81;5073913;28;20195;-57
2022/03/27 09:40:00;;;;;;;13.00;8.53;;;;;;;19.69;19.32;100367.44;5077715;28;20187;-59
2022/03/27 09:42:27;;;;;;;11.13;9.03;;;;;;;19.52;19.48;100374.47;5079177;28;20187;-58
2022/03/27 09:45:11;;;;;;;12.33;8.50;;;;;;;19.62;19.25;100345.72;5075158;28;20176;-57
2022/03/27 09:47:38;;;;;;;12.40;9.10;;;;;;;19.68;19.29;100358.72;5076843;28;20210;-57
2022/03/27 09:50:07;;;;;;;11.23;8.43;;;;;;;19.69;19.46;100365.69;5079735;28;20203;-57
2022/03/27 09:52:34;;;;;;;13.37;8.97;;;;;;;19.72;19.44;100365.63;5079758;28;20190;-58
2022/03/27 09:55:06;;;;;;;13.23;9.30;;;;;;;19.72;19.14;100349.16;5072679;28;20449;-59
2022/03/27 09:57:34;;;;;;;14.67;9.40;;;;;;;19.79;18.36;100336.06;5075055;28;20191;-58
2022/03/27 10:00:15;;;;;;;13.00;8.77;;;;;;;19.85;19.03;100329.91;5079143;28;20306;-58
2022/03/27 10:02:43;;;;;;;11.23;8.67;;;;;;;19.94;19.16;100342.91;5068719;28;20206;-58
2022/03/27 10:05:13;;;;;;;14.80;9.10;;;;;;;20.02;18.71;100343.69;5070335;28;20199;-58
2022/03/27 10:07:42;;;;;;;12.47;9.97;;;;;;;20.11;18.82;100343.59;5070248;28;20195;-58
2022/03/27 10:10:11;;;;;;;15.57;8.50;;;;;;;20.08;19.06;100337.56;5070286;28;20200;-58
2022/03/27 10:12:39;;;;;;;16.20;8.57;;;;;;;20.15;18.56;100326.19;5069835;28;20196;-58
2022/03/27 10:15:09;;;;;;;13.00;8.93;;;;;;;20.18;18.50;100318.31;5070030;28;20270;-58
2022/03/27 10:17:38;;;;;;;12.57;9.80;;;;;;;20.27;18.96;100329.56;5069867;28;20199;-58
2022/03/27 10:20:08;;;;;;;10.87;9.30;;;;;;;20.34;18.82;100331.25;5072272;28;20198;-58
2022/03/27 10:22:39;;;;;;;13.47;9.53;;;;;;;20.44;18.88;100322.44;5069667;28;20264;-59
2022/03/27 10:25:09;;;;;;;14.70;10.07;;;;;;;20.53;18.75;100319.72;5078698;28;20284;-58
2022/03/27 10:27:37;;;;;;;15.27;9.77;;;;;;;20.39;18.87;100323.34;5068551;28;20685;-59
2022/03/27 10:30:06;;;;;;;12.80;8.60;;;;;;;20.45;18.72;100313.72;5070150;28;20210;-58
2022/03/27 10:32:35;;;;;;;13.53;9.03;;;;;;;20.37;18.11;100317.28;5072186;28;20666;-57
2022/03/27 10:35:21;;;;;;;13.27;9.37;;;;;;;20.36;18.21;100284.22;5070160;28;20218;-57
2022/03/27 10:37:59;;;;;;;13.45;9.88;;;;;;;20.48;18.44;100313.69;5068939;28;20430;-58
2022/03/27 10:40:33;;;;;;;11.83;8.50;;;;;;;20.62;18.37;100304.84;5070005;28;20223;-59
2022/03/27 10:43:10;;;;;;;13.90;9.83;;;;;;;20.60;18.28;100305.72;5069898;28;20291;-58
2022/03/27 10:45:37;;;;;;;13.37;9.20;;;;;;;20.71;17.93;100307.34;5070166;28;20202;-59
2022/03/27 10:48:15;;;;;;;10.40;8.43;;;;;;;20.70;18.02;100308.22;5070035;28;21117;-58
2022/03/27 10:50:48;;;;;;;12.53;8.53;;;;;;;20.78;18.08;100303.75;5070256;28;20272;-58
2022/03/27 10:53:19;;;;;;;12.90;9.90;;;;;;;20.85;17.84;100303.66;5069980;28;20307;-58
2022/03/27 10:55:47;;;;;;;13.60;9.40;;;;;;;20.79;17.02;100268.94;5069975;28;20341;-58
2022/03/27 10:58:36;;;;;;;16.23;9.20;;;;;;;21.08;17.53;100291.22;5069671;28;20633;-58
2022/03/27 11:01:06;;;;;;;13.47;8.20;;;;;;;21.08;16.60;100293.81;5069437;28;20219;-58
2022/03/27 11:03:47;;;;;;;12.47;8.93;;;;;;;21.04;16.91;100288.63;5075957;28;20202;-58
2022/03/27 11:06:25;;;;;;;14.23;8.60;;;;;;;20.96;17.00;100275.66;5076252;28;20704;-58
2022/03/27 11:08:54;;;;;;;13.23;9.77;;;;;;;20.89;17.49;100249.63;5075810;28;20191;-58
2022/03/27 11:12:01;;;;;;;11.40;8.80;;;;;;;21.14;16.99;100292.88;5079112;28;20190;-58
2022/03/27 11:15:05;;;;;;;12.27;8.23;;;;;;;21.13;16.59;100278.94;5080780;28;20206;-58
2022/03/27 11:17:34;;;;;;;16.90;10.47;;;;;;;21.24;17.05;100268.31;5082415;28;20197;-58
2022/03/27 11:20:02;;;;;;;14.83;10.10;;;;;;;21.24;16.94;100265.72;5083355;28;20995;-57
2022/03/27 11:22:47;;;;;;;14.70;9.73;;;;;;;21.16;16.85;100250.16;5081892;28;20188;-58
2022/03/27 11:25:45;;;;;;;12.50;9.37;;;;;;;21.33;17.02;100256.88;5078847;28;20187;-58
2022/03/27 11:28:13;;;;;;;17.47;9.97;;;;;;;21.49;17.22;100256.63;5073422;28;20279;-58
2022/03/27 11:31:09;;;;;;;14.50;9.10;;;;;;;21.51;16.58;100267.03;5073005;28;20195;-60
2022/03/27 11:33:37;;;;;;;16.47;9.80;;;;;;;21.42;16.64;100256.75;5073245;28;20191;-58